地図

経路データ

SID SEASON NUMBER BASIN SUBBASIN NAME ISO_TIME NATURE LAT LON WMO_WIND WMO_PRES WMO_AGENCY TRACK_TYPE DIST2LAND LANDFALL IFLAG USA_AGENCY USA_ATCF_ID USA_LAT USA_LON USA_RECORD USA_STATUS USA_WIND USA_PRES USA_SSHS USA_R34_NE USA_R34_SE USA_R34_SW USA_R34_NW USA_R50_NE USA_R50_SE USA_R50_SW USA_R50_NW USA_R64_NE USA_R64_SE USA_R64_SW USA_R64_NW USA_POCI USA_ROCI USA_RMW USA_EYE TOKYO_LAT TOKYO_LON TOKYO_GRADE TOKYO_WIND TOKYO_PRES TOKYO_R50_DIR TOKYO_R50_LONG TOKYO_R50_SHORT TOKYO_R30_DIR TOKYO_R30_LONG TOKYO_R30_SHORT TOKYO_LAND CMA_LAT CMA_LON CMA_CAT CMA_WIND CMA_PRES HKO_LAT HKO_LON HKO_CAT HKO_WIND HKO_PRES NEWDELHI_LAT NEWDELHI_LON NEWDELHI_GRADE NEWDELHI_WIND NEWDELHI_PRES NEWDELHI_CI NEWDELHI_DP NEWDELHI_POCI REUNION_LAT REUNION_LON REUNION_TYPE REUNION_WIND REUNION_PRES REUNION_TNUM REUNION_CI REUNION_RMW REUNION_R34_NE REUNION_R34_SE REUNION_R34_SW REUNION_R34_NW REUNION_R50_NE REUNION_R50_SE REUNION_R50_SW REUNION_R50_NW REUNION_R64_NE REUNION_R64_SE REUNION_R64_SW REUNION_R64_NW BOM_LAT BOM_LON BOM_TYPE BOM_WIND BOM_PRES BOM_TNUM BOM_CI BOM_RMW BOM_R34_NE BOM_R34_SE BOM_R34_SW BOM_R34_NW BOM_R50_NE BOM_R50_SE BOM_R50_SW BOM_R50_NW BOM_R64_NE BOM_R64_SE BOM_R64_SW BOM_R64_NW BOM_ROCI BOM_POCI BOM_EYE BOM_POS_METHOD BOM_PRES_METHOD NADI_LAT NADI_LON NADI_CAT NADI_WIND NADI_PRES WELLINGTON_LAT WELLINGTON_LON WELLINGTON_WIND WELLINGTON_PRES DS824_LAT DS824_LON DS824_STAGE DS824_WIND DS824_PRES TD9636_LAT TD9636_LON TD9636_STAGE TD9636_WIND TD9636_PRES TD9635_LAT TD9635_LON TD9635_WIND TD9635_PRES TD9635_ROCI NEUMANN_LAT NEUMANN_LON NEUMANN_CLASS NEUMANN_WIND NEUMANN_PRES MLC_LAT MLC_LON MLC_CLASS MLC_WIND MLC_PRES USA_GUST BOM_GUST BOM_GUST_PER REUNION_GUST REUNION_GUST_PER USA_SEAHGT USA_SEARAD_NE USA_SEARAD_SE USA_SEARAD_SW USA_SEARAD_NW STORM_SPEED STORM_DIR
1907060S16062 1907 10 SI MM NOT_NAMED 1907-03-01 06:00:00 NR -15.5500 61.5500 reunion main 659 631 _____O____O___ -1 -15.5000 62.0000 99 9.90000 -15.6000 61.1000 7 4 257
1907060S16062 1907 10 SI MM NOT_NAMED 1907-03-01 09:00:00 NR -15.5986 61.3327 main 631 618 _____P____P___ -1 -15.4903 61.9243 99 -15.7068 60.7411 7 4 257
1907060S16062 1907 10 SI MM NOT_NAMED 1907-03-01 12:00:00 NR -15.6467 61.1147 main 618 597 _____P____P___ -1 -15.4827 61.8438 99 -15.8107 60.3856 7 4 257
1907060S16062 1907 10 SI MM NOT_NAMED 1907-03-01 15:00:00 NR -15.6943 60.8957 main 597 585 _____P____P___ -1 -15.4794 61.7540 99 -15.9092 60.0373 7 4 257
1907060S16062 1907 10 SI MM NOT_NAMED 1907-03-01 18:00:00 NR -15.7412 60.6751 main 585 564 _____P____O___ -1 -15.4824 61.6502 99 -16.0000 59.7000 7 4 258
1907060S16062 1907 10 SI MM NOT_NAMED 1907-03-01 21:00:00 NR -15.7886 60.4507 main 564 548 _____P____P___ -1 -15.4939 61.5276 99 -16.0833 59.3739 7 5 257
1907060S16062 1907 10 SI MM NOT_NAMED 1907-03-02 00:00:00 NR -15.8426 60.2129 main 548 529 _____P____P___ -1 -15.5159 61.3815 99 -16.1693 59.0442 7 5 256
1907060S16062 1907 10 SI MM NOT_NAMED 1907-03-02 03:00:00 NR -15.9106 59.9499 main 524 505 _____P____P___ -1 -15.5506 61.2072 99 -16.2707 58.6925 7 6 254
1907060S16062 1907 10 SI MM NOT_NAMED 1907-03-02 06:00:00 NR -16.0000 59.6500 reunion main 505 478 _____O____O___ -1 -15.6000 61.0000 99 9.90000 -16.4000 58.3000 7 7 251
1907060S16062 1907 10 SI MM NOT_NAMED 1907-03-02 09:00:00 NR -16.1205 59.2998 main 478 443 _____P____P___ -1 -15.6656 60.7563 99 -16.5754 57.8434 7 8 250
1907060S16062 1907 10 SI MM NOT_NAMED 1907-03-02 12:00:00 NR -16.2622 58.9113 main 443 422 _____P____P___ -1 -15.7468 60.4773 99 -16.7776 57.3453 7 8 249
1907060S16062 1907 10 SI MM NOT_NAMED 1907-03-02 15:00:00 NR -16.4167 58.4951 main 422 393 _____P____P___ -1 -15.8425 60.1656 99 -16.9910 56.8245 7 9 249
1907060S16062 1907 10 SI MM NOT_NAMED 1907-03-02 18:00:00 NR -16.5758 58.0618 main 393 380 _____P____O___ -1 -15.9516 59.8235 99 -17.2000 56.3000 7 9 250
1907060S16062 1907 10 SI MM NOT_NAMED 1907-03-02 21:00:00 NR -16.7295 57.6206 main 380 358 _____P____P___ -1 -16.0730 59.4535 99 -17.3861 55.7876 7 9 250
1907060S16062 1907 10 SI MM NOT_NAMED 1907-03-03 00:00:00 NR -16.8852 57.1676 main 359 350 _____P____P___ -1 -16.2056 59.0580 99 -17.5648 55.2773 7 9 250
1907060S16062 1907 10 SI MM NOT_NAMED 1907-03-03 03:00:00 NR -17.0422 56.7088 main 356 344 _____P____P___ -1 -16.3483 58.6394 99 -17.7361 54.7783 7 9 250
1907060S16062 1907 10 SI MM NOT_NAMED 1907-03-03 06:00:00 NR -17.2000 56.2500 reunion main 348 346 _____O____O___ -1 -16.5000 58.2000 99 9.90000 -17.9000 54.3000 7 9 250
1907060S16062 1907 10 SI MM NOT_NAMED 1907-03-03 09:00:00 NR -17.3534 55.8009 main 351 351 _____P____P___ -1 -16.6543 57.7447 99 -18.0525 53.8570 7 9 250
1907060S16062 1907 10 SI MM NOT_NAMED 1907-03-03 12:00:00 NR -17.5093 55.3485 main 371 369 _____P____P___ -1 -16.8193 57.2627 99 -18.1992 53.4343 7 9 250
1907060S16062 1907 10 SI MM NOT_NAMED 1907-03-03 15:00:00 NR -17.6695 54.8901 main 371 363 _____P____P___ -1 -16.9926 56.7607 99 -18.3463 53.0195 7 9 250
1907060S16062 1907 10 SI MM NOT_NAMED 1907-03-03 18:00:00 NR -17.8359 54.4230 main 370 358 _____P____O___ -1 -17.1717 56.2459 99 -18.5000 52.6000 7 10 250
1907060S16062 1907 10 SI MM NOT_NAMED 1907-03-03 21:00:00 NR -18.0111 53.9271 main 366 360 _____P____P___ -1 -17.3543 55.7253 99 -18.6680 52.1288 7 10 249
1907060S16062 1907 10 SI MM NOT_NAMED 1907-03-04 00:00:00 NR -18.1904 53.4306 main 371 367 _____P____P___ -1 -17.5380 55.2060 99 -18.8428 51.6552 7 10 249
1907060S16062 1907 10 SI MM NOT_NAMED 1907-03-04 03:00:00 NR -18.3709 52.9495 main 367 328 _____P____P___ -1 -17.7206 54.6952 99 -19.0212 51.2038 7 10 248
1907060S16062 1907 10 SI MM NOT_NAMED 1907-03-04 06:00:00 NR -18.5500 52.5000 reunion main 328 290 _____O____O___ -1 -17.9000 54.2000 99 9.90000 -19.2000 50.8000 7 9 246
1907060S16062 1907 10 SI MM NOT_NAMED 1907-03-04 09:00:00 NR -18.7255 52.1012 main 290 264 _____P____P___ -1 -18.0685 53.7239 99 -19.3825 50.4784 7 8 244
1907060S16062 1907 10 SI MM NOT_NAMED 1907-03-04 12:00:00 NR -18.8998 51.7312 main 254 229 _____P____P___ -1 -18.2354 53.2578 99 -19.5642 50.2046 7 8 243
1907060S16062 1907 10 SI MM NOT_NAMED 1907-03-04 15:00:00 NR -19.0698 51.3787 main 233 207 _____P____P___ -1 -18.4007 52.8040 99 -19.7388 49.9535 7 7 243
1907060S16062 1907 10 SI MM NOT_NAMED 1907-03-04 18:00:00 NR -19.2321 51.0324 main 197 173 _____P____O___ -1 -18.5642 52.3648 99 -19.9000 49.7000 7 7 245
1907060S16062 1907 10 SI MM NOT_NAMED 1907-03-04 21:00:00 NR -19.3806 50.6706 main 173 137 _____P____P___ -1 -18.7260 51.9424 99 -20.0353 49.3988 7 7 247
1907060S16062 1907 10 SI MM NOT_NAMED 1907-03-05 00:00:00 NR -19.5217 50.3157 main 137 114 _____P____P___ -1 -18.8859 51.5392 99 -20.1575 49.0922 7 7 247
1907060S16062 1907 10 SI MM NOT_NAMED 1907-03-05 03:00:00 NR -19.6599 49.9735 main 118 94 _____P____P___ -1 -19.0439 51.1576 99 -20.2759 48.7895 7 7 246
1907060S16062 1907 10 SI MM NOT_NAMED 1907-03-05 06:00:00 NR -19.8000 49.6500 reunion main 94 62 _____O____O___ -1 -19.2000 50.8000 99 9.90000 -20.4000 48.5000 7 7 244
1907060S16062 1907 10 SI MM NOT_NAMED 1907-03-05 09:00:00 NR -19.9461 49.3451 main 52 33 _____P____P___ -1 -19.3535 50.4628 99 -20.5386 48.2274 7 6 242
1907060S16062 1907 10 SI MM NOT_NAMED 1907-03-05 12:00:00 NR -20.0951 49.0601 main 33 10 _____P____P___ -1 -19.5053 50.1504 99 -20.6848 47.9698 7 6 240
1907060S16062 1907 10 SI MM NOT_NAMED 1907-03-05 15:00:00 NR -20.2472 48.7934 main 10 0 _____P____P___ -1 -19.6557 49.8593 99 -20.8386 47.7274 7 6 238
1907060S16062 1907 10 SI MM NOT_NAMED 1907-03-05 18:00:00 NR -20.4026 48.5430 main 0 0 _____P____O___ -1 -19.8052 49.5860 99 -21.0000 47.5000 7 6 236
1907060S16062 1907 10 SI MM NOT_NAMED 1907-03-05 21:00:00 NR -20.5670 48.2942 main 0 0 _____P____P___ -1 -19.9541 49.3270 99 -21.1800 47.2614 7 6 234
1907060S16062 1907 10 SI MM NOT_NAMED 1907-03-06 00:00:00 NR -20.7338 48.0594 main 0 0 _____P____P___ -1 -20.1026 49.0787 99 -21.3650 47.0402 7 5 232
1907060S16062 1907 10 SI MM NOT_NAMED 1907-03-06 03:00:00 NR -20.8968 47.8432 main 0 0 _____P____P___ -1 -20.2512 48.8375 99 -21.5425 46.8489 7 5 230
1907060S16062 1907 10 SI MM NOT_NAMED 1907-03-06 06:00:00 NR -21.0500 47.6500 reunion main 0 0 _____O____O___ -1 -20.4000 48.6000 99 9.90000 -21.7000 46.7000 7 5 231
1907060S16062 1907 10 SI MM NOT_NAMED 1907-03-06 09:00:00 NR -21.1886 47.4514 main 0 0 _____P____P___ -1 -20.5559 48.3124 99 -21.8214 46.5904 7 4 233
1907060S16062 1907 10 SI MM NOT_NAMED 1907-03-06 12:00:00 NR -21.3174 47.2758 main 0 0 _____P____P___ -1 -20.7125 48.0268 99 -21.9223 46.5248 7 4 230
1907060S16062 1907 10 SI MM NOT_NAMED 1907-03-06 15:00:00 NR -21.4404 47.1230 main 0 0 _____P____P___ -1 -20.8686 47.7493 99 -22.0121 46.4968 7 4 227
1907060S16062 1907 10 SI MM NOT_NAMED 1907-03-06 18:00:00 NR -21.5615 46.9930 main 0 0 _____P____O___ -1 -21.0230 47.4860 99 -22.1000 46.5000 7 3 224
1907060S16062 1907 10 SI MM NOT_NAMED 1907-03-06 21:00:00 NR -21.6832 46.8761 main 0 0 _____P____P___ -1 -21.1746 47.2432 99 -22.1918 46.5091 7 3 218
1907060S16062 1907 10 SI MM NOT_NAMED 1907-03-07 00:00:00 NR -21.8035 46.7873 main 0 0 _____P____P___ -1 -21.3220 47.0270 99 -22.2849 46.5476 7 3 209
1907060S16062 1907 10 SI MM NOT_NAMED 1907-03-07 03:00:00 NR -21.9249 46.7281 main 0 0 _____P____P___ -1 -21.4642 46.8439 99 -22.3856 46.6123 7 3 198
1907060S16062 1907 10 SI MM NOT_NAMED 1907-03-07 06:00:00 NR -22.0500 46.7000 reunion main 0 0 _____O____O___ -1 -21.6000 46.7000 99 9.90000 -22.5000 46.7000 7 3 189
1907060S16062 1907 10 SI MM NOT_NAMED 1907-03-07 09:00:00 NR -22.1838 46.6938 main 0 0 _____P____P___ -1 -21.7239 46.5882 99 -22.6438 46.7993 7 3 176
1907060S16062 1907 10 SI MM NOT_NAMED 1907-03-07 12:00:00 NR -22.3207 46.7169 main 0 0 _____P____P___ -1 -21.8414 46.5140 99 -22.8000 46.9199 7 3 166
1907060S16062 1907 10 SI MM NOT_NAMED 1907-03-07 15:00:00 NR -22.4552 46.7650 main 0 0 _____P____P___ -1 -21.9542 46.4745 99 -22.9562 47.0555 7 3 158
1907060S16062 1907 10 SI MM NOT_NAMED 1907-03-07 18:00:00 NR -22.5818 46.8334 main 0 0 _____P____O___ -1 -22.0637 46.4669 99 -23.1000 47.2000 7 3 150
1907060S16062 1907 10 SI MM NOT_NAMED 1907-03-07 21:00:00 NR -22.6967 46.9181 main 0 0 _____P____P___ -1 -22.1715 46.4885 99 -23.2219 47.3478 7 2 143
1907060S16062 1907 10 SI MM NOT_NAMED 1907-03-08 00:00:00 NR -22.7274 46.9483 main 0 0 _____P____P___ -1 -22.2791 46.5364 99 -23.3251 47.4975 7 0 127
1907060S16062 1907 10 SI MM NOT_NAMED 1907-03-08 03:00:00 NR -22.7307 46.9547 main 0 0 _____P____P___ -1 -22.3881 46.6078 99 -23.4157 47.6484 7 0 0
1907060S16062 1907 10 SI MM NOT_NAMED 1907-03-08 06:00:00 NR -22.7000 46.9200 reunion main 0 0 _____O____O___ -1 -22.5000 46.7000 99 9.90000 -23.5000 47.8000 7 2 305
1907060S16062 1907 10 SI MM NOT_NAMED 1907-03-08 09:00:00 NR -22.6282 46.7995 main 0 0 _____P________ -1 -22.6282 46.7995 99 7 1 0
1907060S16062 1907 10 SI MM NOT_NAMED 1907-03-08 12:00:00 NR -22.7595 46.9251 main 0 0 _____P________ -1 -22.7595 46.9251 99 7 4 137
1907060S16062 1907 10 SI MM NOT_NAMED 1907-03-08 15:00:00 NR -22.8918 47.0710 main 0 0 _____P________ -1 -22.8918 47.0710 99 7 4 133
1907060S16062 1907 10 SI MM NOT_NAMED 1907-03-08 18:00:00 NR -23.0232 47.2313 main 0 0 _____P________ -1 -23.0232 47.2313 99 4 131
1907060S16062 1907 10 SI MM NOT_NAMED 1907-03-08 21:00:00 NR -23.1516 47.4003 main 0 0 _____P________ -1 -23.1516 47.4003 99 4 129
1907060S16062 1907 10 SI MM NOT_NAMED 1907-03-09 00:00:00 NR -23.2752 47.5720 main 0 0 _____P________ -1 -23.2752 47.5720 99 4 128
1907060S16062 1907 10 SI MM NOT_NAMED 1907-03-09 03:00:00 NR -23.3919 47.7406 main 0 0 _____P________ -1 -23.3919 47.7406 99 4 127
1907060S16062 1907 10 SI MM NOT_NAMED 1907-03-09 06:00:00 NR -23.5000 47.9000 reunion main 23 23 _____O________ -1 -23.5000 47.9000 99 9.90000 3 126
1907060S16062 1907 10 SI MM NOT_NAMED 1907-03-09 09:00:00 NR -23.5980 48.0456 main 37 37 _____P________ -1 -23.5980 48.0456 99 3 127
1907060S16062 1907 10 SI MM NOT_NAMED 1907-03-09 12:00:00 NR -23.6868 48.1780 main 60 60 _____P________ -1 -23.6868 48.1780 99 3 127
1907060S16062 1907 10 SI MM NOT_NAMED 1907-03-09 15:00:00 NR -23.7678 48.2990 main 74 74 _____P________ -1 -23.7678 48.2990 99 3 126
1907060S16062 1907 10 SI MM NOT_NAMED 1907-03-09 18:00:00 NR -23.8421 48.4106 main 84 84 _____P________ -1 -23.8421 48.4106 99 2 126
1907060S16062 1907 10 SI MM NOT_NAMED 1907-03-09 21:00:00 NR -23.9112 48.5145 main 97 97 _____P________ -1 -23.9112 48.5145 99 2 126
1907060S16062 1907 10 SI MM NOT_NAMED 1907-03-10 00:00:00 NR -23.9763 48.6128 main 111 111 _____P________ -1 -23.9763 48.6128 99 2 126
1907060S16062 1907 10 SI MM NOT_NAMED 1907-03-10 03:00:00 NR -24.0388 48.7073 main 120 120 _____P________ -1 -24.0388 48.7073 99 2 125
1907060S16062 1907 10 SI MM NOT_NAMED 1907-03-10 06:00:00 NR -24.1000 48.8000 reunion main 132 _____O________ -1 -24.1000 48.8000 99 9.90000 2 126

IBTrACS Databaseについて

本データベースは、米国NOAAが公開する1842年以降の世界の熱帯低気圧のベストトラックデータアーカイブInternational Best Track Archive for Climate Stewardship (IBTrACS)を、ウェブで閲覧しやすい形式に変換したものです。

最終更新日:2021-12-01